createdAt,value
2023-12-04T00:01:16.005Z,28.55
2023-12-04T00:04:18.298Z,30.33
2023-12-04T00:07:20.480Z,28.83
2023-12-04T00:10:22.723Z,24.47
2023-12-04T00:13:24.960Z,25.10
2023-12-04T00:16:27.735Z,38.03
2023-12-04T00:19:29.978Z,32.70
2023-12-04T00:22:33.462Z,26.50
2023-12-04T00:25:35.724Z,27.67
2023-12-04T00:28:38.336Z,15.15
2023-12-04T00:31:40.471Z,27.33
2023-12-04T00:34:42.656Z,22.35
2023-12-04T00:37:44.888Z,25.33
2023-12-04T00:40:47.049Z,27.33
2023-12-04T00:43:49.195Z,24.42
2023-12-04T00:46:51.419Z,29.88
2023-12-04T00:49:53.651Z,30.45
2023-12-04T00:52:55.803Z,29.73
2023-12-04T00:55:58.090Z,28.43
2023-12-04T00:59:00.311Z,28.67
2023-12-04T01:02:02.609Z,24.20
2023-12-04T01:05:05.126Z,26.58
2023-12-04T01:08:07.337Z,30.97
2023-12-04T01:11:09.561Z,23.03
2023-12-04T01:14:11.685Z,37.05
2023-12-04T01:17:13.917Z,33.80
2023-12-04T01:20:16.458Z,32.92
2023-12-04T01:23:18.586Z,31.23
2023-12-04T01:26:20.767Z,32.20
2023-12-04T01:29:23.044Z,36.42
2023-12-04T01:32:25.276Z,22.30
2023-12-04T01:35:27.522Z,27.90
2023-12-04T01:38:29.772Z,23.50
2023-12-04T01:41:32.365Z,31.37
2023-12-04T01:44:34.547Z,23.35
2023-12-04T01:47:36.772Z,32.92
2023-12-04T01:50:39.447Z,18.77
2023-12-04T01:53:42.234Z,26.10
2023-12-04T01:56:45.244Z,31.53
2023-12-04T01:59:48.007Z,32.00
2023-12-04T02:02:50.231Z,33.20
2023-12-04T02:05:52.603Z,28.00
2023-12-04T02:08:54.846Z,30.70
2023-12-04T02:11:58.994Z,28.27
2023-12-04T02:15:01.545Z,29.08
2023-12-04T02:18:05.112Z,30.25
2023-12-04T02:21:07.438Z,30.70
2023-12-04T02:24:09.716Z,31.83
2023-12-04T02:27:15.921Z,23.33
2023-12-04T02:30:19.293Z,28.27
2023-12-04T02:33:24.503Z,22.65
2023-12-04T02:36:27.275Z,23.83
2023-12-04T02:39:29.921Z,28.37
2023-12-04T02:42:32.843Z,29.90
2023-12-04T02:45:35.028Z,21.83
2023-12-04T02:48:37.379Z,22.50
2023-12-04T02:51:42.406Z,25.13
2023-12-04T02:54:44.650Z,19.50
2023-12-04T02:57:46.918Z,23.93
2023-12-04T03:00:49.252Z,25.50
2023-12-04T03:03:51.670Z,28.17
2023-12-04T03:06:53.865Z,25.00
2023-12-04T03:09:56.070Z,27.73
2023-12-04T03:12:58.193Z,36.00
2023-12-04T03:16:00.516Z,34.67
2023-12-04T03:19:02.760Z,32.90
2023-12-04T03:22:05.054Z,41.70
2023-12-04T03:25:07.582Z,43.37
2023-12-04T03:28:09.948Z,32.43
2023-12-04T03:31:12.202Z,26.75
2023-12-04T03:34:14.460Z,27.85
2023-12-04T03:37:16.782Z,27.70
2023-12-04T03:40:18.964Z,24.10
2023-12-04T03:43:21.070Z,24.50
2023-12-04T03:46:23.291Z,27.15
2023-12-04T03:49:25.432Z,25.95
2023-12-04T03:52:27.524Z,30.50
2023-12-04T03:55:29.937Z,30.20
2023-12-04T03:58:33.064Z,37.87
2023-12-04T04:01:35.340Z,42.45
2023-12-04T04:04:37.463Z,31.95
2023-12-04T04:07:40.437Z,36.30
2023-12-04T04:10:42.701Z,27.90
2023-12-04T04:13:44.859Z,34.47
2023-12-04T04:16:47.047Z,37.38
2023-12-04T04:19:49.205Z,34.55
2023-12-04T04:22:51.472Z,33.53
2023-12-04T04:25:53.667Z,34.70
2023-12-04T04:28:56.283Z,36.47
2023-12-04T04:31:58.461Z,34.55
2023-12-04T04:35:00.669Z,41.97
2023-12-04T04:38:02.877Z,35.65
2023-12-04T04:41:05.117Z,28.43
2023-12-04T04:44:07.445Z,45.23
2023-12-04T04:47:09.671Z,39.03
2023-12-04T04:50:11.829Z,32.17
2023-12-04T04:53:14.008Z,32.83
2023-12-04T04:56:16.632Z,37.77
2023-12-04T04:59:18.817Z,54.33
2023-12-04T05:02:21.000Z,32.92
2023-12-04T05:05:23.235Z,34.80
2023-12-04T05:08:25.423Z,33.22
2023-12-04T05:11:27.601Z,56.80
2023-12-04T05:14:29.906Z,34.63
2023-12-04T05:17:32.090Z,33.28
2023-12-04T05:20:34.328Z,37.28
2023-12-04T05:23:36.861Z,32.70
2023-12-04T05:26:39.042Z,28.27
2023-12-04T05:29:41.298Z,34.17
2023-12-04T05:32:43.532Z,32.92
2023-12-04T05:35:45.829Z,27.48
2023-12-04T05:38:47.993Z,29.08
2023-12-04T05:41:50.176Z,39.37
2023-12-04T05:44:56.384Z,34.03
2023-12-04T05:47:58.637Z,32.10
2023-12-04T05:51:00.814Z,29.77
2023-12-04T05:54:02.902Z,20.30
2023-12-04T05:57:05.093Z,29.93
2023-12-04T06:00:13.559Z,23.27
2023-12-04T06:03:15.789Z,32.40
2023-12-04T06:06:17.997Z,29.30
2023-12-04T06:09:20.142Z,29.13
2023-12-04T06:12:22.322Z,20.90
2023-12-04T06:15:24.436Z,16.67
2023-12-04T06:18:29.177Z,26.52
2023-12-04T06:21:31.925Z,20.95
2023-12-04T06:24:34.337Z,24.83
2023-12-04T06:27:36.737Z,22.23
2023-12-04T06:30:39.273Z,26.90
2023-12-04T06:33:41.621Z,15.95
2023-12-04T06:36:43.964Z,14.77
2023-12-04T06:39:46.619Z,20.90
2023-12-04T06:42:49.051Z,15.20
2023-12-04T06:45:51.364Z,12.17
2023-12-04T06:48:55.418Z,19.05
2023-12-04T06:51:57.851Z,29.63
2023-12-04T06:55:00.247Z,33.10
2023-12-04T06:58:02.931Z,41.77
2023-12-04T07:01:08.174Z,23.33
2023-12-04T07:04:13.302Z,22.35
2023-12-04T07:07:15.965Z,28.50
2023-12-04T07:10:18.406Z,14.07
2023-12-04T07:13:20.665Z,11.70
2023-12-04T07:16:22.972Z,15.60
2023-12-04T07:19:25.453Z,17.65
2023-12-04T07:22:27.638Z,16.88
2023-12-04T07:25:29.848Z,19.10
2023-12-04T07:28:32.033Z,20.73
2023-12-04T07:31:34.224Z,16.60
2023-12-04T07:34:36.461Z,13.40
2023-12-04T07:37:38.852Z,12.95
2023-12-04T07:40:41.475Z,21.08
2023-12-04T07:43:44.256Z,21.43
2023-12-04T07:46:46.410Z,19.27
2023-12-04T07:49:48.622Z,18.55
2023-12-04T07:52:51.352Z,17.08
2023-12-04T07:55:53.569Z,16.08
2023-12-04T07:58:55.764Z,13.07
2023-12-04T08:01:58.024Z,12.63
2023-12-04T08:05:00.305Z,14.50
2023-12-04T08:08:02.597Z,16.88
2023-12-04T08:11:04.898Z,16.85
2023-12-04T08:14:07.839Z,24.67
2023-12-04T08:17:09.984Z,12.93
2023-12-04T08:20:21.970Z,8.70
2023-12-04T08:23:29.805Z,10.88
2023-12-04T08:26:31.986Z,15.13
2023-12-04T08:29:34.333Z,11.80
2023-12-04T08:32:36.559Z,17.47
2023-12-04T08:35:38.867Z,8.02
2023-12-04T08:38:41.187Z,13.40
2023-12-04T08:41:53.924Z,10.25
2023-12-04T08:45:00.759Z,9.67
2023-12-04T08:48:03.140Z,11.43
2023-12-04T08:51:05.557Z,10.95
2023-12-04T08:57:13.688Z,11.15
2023-12-04T09:00:16.095Z,10.67
2023-12-04T09:03:22.727Z,11.30
2023-12-04T09:09:36.935Z,11.35
2023-12-04T09:12:39.302Z,9.38
2023-12-04T09:15:41.671Z,10.53
2023-12-04T09:18:44.151Z,13.07
2023-12-04T09:21:47.033Z,10.50
2023-12-04T09:24:51.079Z,13.00
2023-12-04T09:27:53.380Z,8.13
2023-12-04T09:30:55.594Z,10.90
2023-12-04T09:33:57.798Z,10.47
2023-12-04T09:37:06.193Z,12.57
2023-12-04T09:40:13.634Z,16.95
2023-12-04T09:43:16.105Z,10.55
2023-12-04T09:46:18.782Z,11.50
2023-12-04T09:49:21.198Z,9.57
2023-12-04T09:52:23.649Z,16.05
2023-12-04T09:55:26.115Z,17.60
2023-12-04T09:58:30.342Z,21.83
2023-12-04T10:01:37.306Z,19.77
2023-12-04T10:04:39.892Z,34.70
2023-12-04T10:07:42.623Z,22.30
2023-12-04T10:10:45.721Z,24.95
2023-12-04T10:13:58.106Z,33.70
2023-12-04T10:17:14.551Z,21.33
2023-12-04T10:24:37.115Z,9.23
2023-12-04T10:27:39.718Z,16.35
2023-12-04T10:30:42.050Z,9.75
2023-12-04T10:33:44.314Z,21.10
2023-12-04T10:36:47.217Z,14.47
2023-12-04T10:39:50.570Z,16.67
2023-12-04T10:43:11.043Z,17.67
2023-12-04T10:46:13.896Z,20.38
2023-12-04T10:49:16.655Z,13.77
2023-12-04T10:52:22.822Z,10.93
2023-12-04T10:55:25.657Z,16.98
2023-12-04T10:58:29.028Z,19.08
2023-12-04T11:01:33.157Z,22.27
2023-12-04T11:04:36.893Z,19.17
2023-12-04T11:08:12.780Z,18.07
2023-12-04T11:11:02.067Z,20.92
2023-12-04T11:14:06.742Z,17.40
2023-12-04T11:17:12.597Z,13.30
2023-12-04T11:20:22.809Z,10.87
2023-12-04T11:23:25.591Z,10.57
2023-12-04T11:26:28.296Z,18.92
2023-12-04T11:29:31.152Z,27.17
2023-12-04T11:32:44.316Z,28.00
2023-12-04T11:35:46.800Z,18.07
2023-12-04T11:38:50.197Z,16.77
2023-12-04T11:41:52.832Z,19.88
2023-12-04T11:45:00.970Z,22.80
2023-12-04T11:48:03.377Z,11.60
2023-12-04T11:51:08.668Z,21.57
2023-12-04T11:54:11.865Z,15.87
2023-12-04T11:57:14.378Z,20.05
2023-12-04T12:00:23.165Z,16.33
2023-12-04T12:03:25.912Z,21.25
2023-12-04T12:06:28.651Z,16.90
2023-12-04T12:09:31.861Z,24.70
2023-12-04T12:12:35.135Z,26.85
2023-12-04T12:15:37.391Z,16.63
2023-12-04T12:18:41.450Z,27.63
2023-12-04T12:21:43.818Z,28.60
2023-12-04T12:24:46.249Z,14.80
2023-12-04T12:27:48.600Z,16.58
2023-12-04T12:30:50.869Z,22.88
2023-12-04T12:33:53.490Z,25.02
2023-12-04T12:36:55.870Z,20.30
2023-12-04T12:39:58.981Z,22.87
2023-12-04T12:43:08.729Z,23.45
2023-12-04T12:46:11.614Z,22.30
2023-12-04T12:49:16.565Z,20.77
2023-12-04T12:52:20.684Z,20.93
2023-12-04T12:55:26.448Z,23.33
2023-12-04T12:58:28.892Z,20.88
2023-12-04T13:01:34.258Z,24.58
2023-12-04T13:04:37.551Z,23.85
2023-12-04T13:07:40.279Z,26.40
2023-12-04T13:10:43.187Z,16.03
2023-12-04T13:13:45.620Z,16.40
2023-12-04T13:16:47.991Z,20.30
2023-12-04T13:19:50.250Z,16.95
2023-12-04T13:22:52.352Z,25.33
2023-12-04T13:25:55.858Z,15.13
2023-12-04T13:29:00.320Z,20.80
2023-12-04T13:32:02.905Z,24.70
2023-12-04T13:35:06.005Z,19.52
2023-12-04T13:38:18.695Z,18.23
2023-12-04T13:41:43.811Z,15.57
2023-12-04T13:44:46.036Z,19.90
2023-12-04T13:47:48.517Z,18.40
2023-12-04T13:50:51.542Z,15.38
2023-12-04T13:54:00.780Z,16.13
2023-12-04T13:57:05.172Z,16.77
2023-12-04T14:00:07.807Z,19.08
2023-12-04T14:03:10.434Z,16.58
2023-12-04T14:06:13.263Z,27.58
2023-12-04T14:09:15.906Z,29.63
2023-12-04T14:12:18.199Z,27.90
2023-12-04T14:15:21.201Z,31.13
2023-12-04T14:18:24.075Z,31.05
2023-12-04T14:21:26.315Z,22.98
2023-12-04T14:24:31.400Z,22.83
2023-12-04T14:27:33.759Z,28.97
2023-12-04T14:30:36.567Z,21.17
2023-12-04T14:33:42.020Z,27.52
2023-12-04T14:36:46.457Z,26.20
2023-12-04T14:39:48.791Z,30.70
2023-12-04T14:42:51.858Z,26.40
2023-12-04T14:45:54.191Z,11.68
2023-12-04T14:48:56.381Z,15.15
2023-12-04T14:51:58.871Z,18.88
2023-12-04T14:55:09.948Z,20.77
2023-12-04T14:58:37.971Z,16.20
2023-12-04T15:01:49.202Z,22.67
2023-12-04T15:04:54.263Z,27.30
2023-12-04T15:07:56.647Z,25.10
2023-12-04T15:11:17.368Z,20.03
2023-12-04T15:14:44.517Z,18.73
2023-12-04T15:17:52.389Z,21.35
2023-12-04T15:20:54.914Z,12.50
2023-12-04T15:23:57.140Z,21.30
2023-12-04T15:26:59.319Z,37.80
2023-12-04T15:30:01.485Z,29.30
2023-12-04T15:33:05.084Z,21.92
2023-12-04T15:36:12.065Z,25.98
2023-12-04T15:39:17.709Z,20.63
2023-12-04T15:42:20.450Z,21.47
2023-12-04T15:45:23.668Z,23.20
2023-12-04T15:48:26.020Z,22.77
2023-12-04T15:51:28.502Z,24.20
2023-12-04T15:54:33.406Z,19.77
2023-12-04T15:57:36.210Z,24.83
2023-12-04T16:00:39.827Z,17.10
2023-12-04T16:03:42.308Z,27.70
2023-12-04T16:06:44.756Z,24.70
2023-12-04T16:09:47.866Z,28.90
2023-12-04T16:12:50.498Z,30.77
2023-12-04T16:15:52.785Z,25.93
2023-12-04T16:18:55.007Z,35.63
2023-12-04T16:21:57.246Z,36.65
2023-12-04T16:24:59.461Z,32.20
2023-12-04T16:28:02.145Z,30.90
2023-12-04T16:31:06.612Z,28.77
2023-12-04T16:34:09.009Z,32.58
2023-12-04T16:37:11.220Z,31.95
2023-12-04T16:40:13.519Z,25.42
2023-12-04T16:43:15.667Z,30.83
2023-12-04T16:46:18.371Z,23.27
2023-12-04T16:49:20.717Z,24.10
2023-12-04T16:52:23.008Z,24.85
2023-12-04T16:55:25.192Z,26.17
2023-12-04T16:58:28.069Z,24.77
2023-12-04T17:01:30.301Z,20.13
2023-12-04T17:04:32.689Z,25.80
2023-12-04T17:07:35.275Z,24.05
2023-12-04T17:10:37.501Z,24.55
2023-12-04T17:13:39.955Z,21.63
2023-12-04T17:16:42.321Z,26.03
2023-12-04T17:19:48.405Z,29.80
2023-12-04T17:22:50.972Z,27.10
2023-12-04T17:25:55.347Z,27.50
2023-12-04T17:28:57.727Z,30.33
2023-12-04T17:32:02.153Z,21.60
2023-12-04T17:35:04.371Z,20.15
2023-12-04T17:38:06.508Z,24.88
2023-12-04T17:41:10.901Z,28.35
2023-12-04T17:44:13.524Z,25.63
2023-12-04T17:47:15.919Z,25.00
2023-12-04T17:50:18.100Z,28.05
2023-12-04T17:53:20.680Z,27.27
2023-12-04T17:56:22.936Z,23.35
2023-12-04T17:59:25.275Z,29.43
2023-12-04T18:02:27.564Z,26.67
2023-12-04T18:05:29.837Z,27.30
2023-12-04T18:08:32.665Z,24.63
2023-12-04T18:11:35.360Z,28.70
2023-12-04T18:14:37.781Z,25.63
2023-12-04T18:17:43.366Z,28.20
2023-12-04T18:20:48.030Z,29.10
2023-12-04T18:23:51.088Z,28.08
2023-12-04T18:26:53.659Z,30.20
2023-12-04T18:29:56.379Z,29.57
2023-12-04T18:32:59.709Z,33.17
2023-12-04T18:36:06.055Z,38.03
2023-12-04T18:39:09.581Z,32.70
2023-12-04T18:42:12.306Z,37.03
2023-12-04T18:45:15.087Z,25.97
2023-12-04T18:48:20.706Z,32.73
2023-12-04T18:51:23.427Z,33.50
2023-12-04T18:54:25.723Z,27.20
2023-12-04T18:57:28.578Z,33.00
2023-12-04T19:00:30.976Z,28.67
2023-12-04T19:03:33.819Z,30.20
2023-12-04T19:06:36.495Z,30.83
2023-12-04T19:09:38.762Z,30.80
2023-12-04T19:12:41.071Z,31.17
2023-12-04T19:15:43.398Z,28.57
2023-12-04T19:18:45.672Z,32.53
2023-12-04T19:21:47.900Z,28.33
2023-12-04T19:24:50.199Z,32.92
2023-12-04T19:27:52.375Z,31.08
2023-12-04T19:30:54.639Z,34.30
2023-12-04T19:33:56.962Z,28.10
2023-12-04T19:37:00.450Z,31.25
2023-12-04T19:40:04.099Z,27.05
2023-12-04T19:43:06.632Z,23.95
2023-12-04T19:46:09.037Z,40.70
2023-12-04T19:49:12.357Z,27.43
2023-12-04T19:52:14.629Z,22.48
2023-12-04T19:55:17.145Z,24.15
2023-12-04T19:58:19.314Z,23.58
2023-12-04T20:01:28.226Z,24.50
2023-12-04T20:04:30.963Z,25.53
2023-12-04T20:07:33.462Z,27.70
2023-12-04T20:10:39.024Z,32.08
2023-12-04T20:13:41.466Z,34.88
2023-12-04T20:16:48.067Z,33.70
2023-12-04T20:19:50.708Z,27.93
2023-12-04T20:22:53.313Z,30.60
2023-12-04T20:25:55.501Z,32.97
2023-12-04T20:28:59.305Z,23.90
2023-12-04T20:32:02.245Z,26.50
2023-12-04T20:35:04.629Z,29.87
2023-12-04T20:38:06.780Z,33.92
2023-12-04T20:41:09.612Z,27.23
2023-12-04T20:44:11.804Z,27.75
2023-12-04T20:47:14.127Z,22.97
2023-12-04T20:50:16.273Z,27.43
2023-12-04T20:53:18.580Z,27.38
2023-12-04T20:56:21.175Z,22.30
2023-12-04T20:59:23.571Z,26.17
2023-12-04T21:02:26.090Z,23.30
2023-12-04T21:05:28.718Z,26.73
2023-12-04T21:08:31.556Z,27.95
2023-12-04T21:11:33.760Z,24.17
2023-12-04T21:14:35.913Z,26.65
2023-12-04T21:17:39.530Z,20.03
2023-12-04T21:20:41.889Z,24.37
2023-12-04T21:23:44.181Z,31.52
2023-12-04T21:26:48.100Z,27.10
2023-12-04T21:29:50.290Z,26.10
2023-12-04T21:32:52.557Z,17.50
2023-12-04T21:35:54.791Z,28.50
2023-12-04T21:38:57.239Z,24.73
2023-12-04T21:41:59.452Z,24.15
2023-12-04T21:45:01.672Z,26.60
2023-12-04T21:48:04.829Z,25.13
2023-12-04T21:51:07.109Z,34.57
2023-12-04T21:54:09.361Z,33.10
2023-12-04T21:57:11.775Z,30.65
2023-12-04T22:00:14.336Z,30.38
2023-12-04T22:03:16.891Z,26.13
2023-12-04T22:06:19.397Z,31.30
2023-12-04T22:09:23.959Z,24.95
2023-12-04T22:12:27.746Z,24.08
2023-12-04T22:15:29.973Z,20.88
2023-12-04T22:18:33.708Z,24.03
2023-12-04T22:21:35.967Z,34.93
2023-12-04T22:24:38.137Z,28.58
2023-12-04T22:27:40.656Z,30.27
2023-12-04T22:30:43.682Z,23.17
2023-12-04T22:33:45.989Z,28.27
2023-12-04T22:36:48.284Z,34.73
2023-12-04T22:39:50.524Z,22.65
2023-12-04T22:42:52.634Z,26.90
2023-12-04T22:45:55.736Z,23.75
2023-12-04T22:48:58.205Z,22.17
2023-12-04T22:52:00.409Z,30.07
2023-12-04T22:55:02.845Z,27.30
2023-12-04T22:58:05.032Z,23.70
2023-12-04T23:01:07.705Z,20.75
2023-12-04T23:04:11.183Z,27.20
2023-12-04T23:07:13.475Z,19.50
2023-12-04T23:10:15.914Z,11.52
2023-12-04T23:13:18.164Z,17.88
2023-12-04T23:16:20.322Z,19.67
2023-12-04T23:19:22.584Z,28.83
2023-12-04T23:22:24.992Z,15.40
2023-12-04T23:25:27.131Z,21.08
2023-12-04T23:28:29.272Z,19.77
2023-12-04T23:31:32.239Z,19.17
2023-12-04T23:34:34.948Z,20.00
2023-12-04T23:37:37.157Z,21.90
2023-12-04T23:40:39.304Z,22.85
2023-12-04T23:43:42.677Z,22.05
2023-12-04T23:46:44.801Z,18.95
2023-12-04T23:49:46.994Z,21.90
2023-12-04T23:52:49.296Z,21.43
2023-12-04T23:55:52.179Z,20.38
2023-12-04T23:58:54.484Z,22.73
